Time;durP1;ratioP1;P1;durP2;ratioP2;P2;SDS_P1;SDS_P2;PMS_P1;PMS_P2;Temp;Humidity;BMP_temperature;BMP_pressure;BME280_temperature;BME280_humidity;BME280_pressure;Samples;Min_cycle;Max_cycle;Signal;HPM_P1;HPM_P2
2023/01/09 00:01:49;;;;;;;13.43;7.13;;;;;;;;;;5036917;28;20091;-57
2023/01/09 00:04:16;;;;;;;10.48;6.88;;;;;;;;;;5036482;28;20099;-58
2023/01/09 00:06:45;;;;;;;10.18;6.63;;;;;;;;;;5054298;28;20099;-59
2023/01/09 00:09:12;;;;;;;10.25;6.53;;;;;;;;;;5054459;28;20057;-57
2023/01/09 00:11:38;;;;;;;9.57;6.30;;;;;;;;;;5053812;28;20060;-58
2023/01/09 00:14:05;;;;;;;9.65;6.63;;;;;;;;;;5053932;22;20042;-51
2023/01/09 00:16:32;;;;;;;10.43;7.50;;;;;;;;;;5034766;28;20057;-49
2023/01/09 00:19:01;;;;;;;13.18;8.63;;;;;;;;;;5034681;28;20053;-52
2023/01/09 00:21:28;;;;;;;11.80;8.35;;;;;;;;;;5034446;28;20414;-50
2023/01/09 00:23:55;;;;;;;10.95;7.88;;;;;;;;;;5034400;28;20107;-47
2023/01/09 00:26:22;;;;;;;12.45;7.53;;;;;;;;;;5034153;28;20064;-52
2023/01/09 00:28:51;;;;;;;12.75;8.15;;;;;;;;;;5034267;28;20049;-51
2023/01/09 00:31:19;;;;;;;11.43;8.55;;;;;;;;;;5034231;28;20087;-48
2023/01/09 00:33:48;;;;;;;12.18;8.45;;;;;;;;;;5033998;28;20050;-49
2023/01/09 00:36:17;;;;;;;11.27;8.40;;;;;;;;;;5034421;28;20064;-49
2023/01/09 00:38:43;;;;;;;13.73;8.88;;;;;;;;;;5034258;28;20456;-49
2023/01/09 00:41:14;;;;;;;11.98;8.85;;;;;;;;;;5033848;28;20060;-52
2023/01/09 00:43:44;;;;;;;12.68;8.50;;;;;;;;;;5033844;28;20517;-52
2023/01/09 00:46:11;;;;;;;11.70;7.88;;;;;;;;;;5034265;28;20111;-51
2023/01/09 00:48:41;;;;;;;11.73;8.00;;;;;;;;;;5033913;28;20046;-49
2023/01/09 00:51:08;;;;;;;11.02;7.78;;;;;;;;;;5033823;28;20107;-50
2023/01/09 00:53:39;;;;;;;12.10;8.50;;;;;;;;;;5033283;28;20460;-52
2023/01/09 00:56:07;;;;;;;;;;;;;;;;;;5034340;28;20053;-49
2023/01/09 00:58:35;;;;;;;11.40;7.75;;;;;;;;;;5033785;28;19921;-48
2023/01/09 01:01:02;;;;;;;10.35;7.97;;;;;;;;;;5033693;28;20277;-49
2023/01/09 01:03:29;;;;;;;11.80;8.52;;;;;;;;;;5033616;28;20053;-53
2023/01/09 01:08:42;;;;;;;11.32;7.03;;;;;;;;;;5034652;28;20053;-52
2023/01/09 01:11:11;;;;;;;11.43;8.20;;;;;;;;;;5033323;28;20486;-48
2023/01/09 01:13:39;;;;;;;9.63;7.18;;;;;;;;;;5033335;28;20057;-50
2023/01/09 01:16:08;;;;;;;10.98;8.93;;;;;;;;;;5033136;28;20457;-49
2023/01/09 01:18:35;;;;;;;10.10;8.27;;;;;;;;;;5033348;28;20045;-49
2023/01/09 01:21:06;;;;;;;12.00;8.00;;;;;;;;;;5033238;28;20049;-50
2023/01/09 01:23:33;;;;;;;10.77;8.30;;;;;;;;;;5033042;28;20056;-49
2023/01/09 01:26:05;;;;;;;13.15;7.57;;;;;;;;;;5033348;28;20049;-49
2023/01/09 01:28:32;;;;;;;11.93;7.72;;;;;;;;;;5033240;28;20495;-52
2023/01/09 01:30:59;;;;;;;13.27;8.52;;;;;;;;;;5033365;28;20045;-49
2023/01/09 01:33:26;;;;;;;11.65;8.43;;;;;;;;;;5032612;28;20679;-52
2023/01/09 01:36:00;;;;;;;13.18;7.80;;;;;;;;;;5033108;28;20182;-51
2023/01/09 01:38:27;;;;;;;12.15;8.25;;;;;;;;;;5032763;28;20088;-49
2023/01/09 01:40:54;;;;;;;11.57;8.40;;;;;;;;;;5032670;28;20530;-49
2023/01/09 01:43:23;;;;;;;11.05;7.80;;;;;;;;;;5032231;28;20525;-51
2023/01/09 01:45:50;;;;;;;11.38;8.13;;;;;;;;;;5032718;28;20049;-50
2023/01/09 01:48:20;;;;;;;15.90;7.93;;;;;;;;;;5032287;28;20108;-52
2023/01/09 01:50:50;;;;;;;11.00;7.45;;;;;;;;;;5032843;28;20055;-51
2023/01/09 01:53:19;;;;;;;12.23;7.82;;;;;;;;;;5032164;28;20595;-51
2023/01/09 01:55:56;;;;;;;10.70;6.65;;;;;;;;;;5032526;28;20058;-49
2023/01/09 01:58:27;;;;;;;10.20;6.72;;;;;;;;;;5032300;28;20049;-53
2023/01/09 02:00:54;;;;;;;9.93;6.30;;;;;;;;;;5032418;28;20053;-50
2023/01/09 02:03:27;;;;;;;11.88;6.68;;;;;;;;;;5032266;28;20475;-49
2023/01/09 02:05:54;;;;;;;10.23;6.90;;;;;;;;;;5032434;28;20579;-52
2023/01/09 02:08:21;;;;;;;10.57;6.90;;;;;;;;;;5032310;28;20383;-49
2023/01/09 02:10:49;;;;;;;10.45;6.88;;;;;;;;;;5032265;28;20123;-52
2023/01/09 02:13:17;;;;;;;10.70;7.00;;;;;;;;;;5031712;28;20123;-52
2023/01/09 02:15:55;;;;;;;9.70;6.70;;;;;;;;;;5031578;28;20053;-55
2023/01/09 02:18:35;;;;;;;11.63;7.05;;;;;;;;;;5032145;28;20103;-54
2023/01/09 02:21:05;;;;;;;10.10;6.43;;;;;;;;;;5032265;28;20522;-54
2023/01/09 02:24:04;;;;;;;10.80;6.87;;;;;;;;;;5031673;28;20294;-49
2023/01/09 02:27:07;;;;;;;10.27;6.60;;;;;;;;;;5012381;28;20100;-53
2023/01/09 02:30:12;;;;;;;9.80;6.28;;;;;;;;;;5008883;28;20100;-49
2023/01/09 02:32:52;;;;;;;10.13;5.72;;;;;;;;;;5010227;28;20068;-51
2023/01/09 02:35:29;;;;;;;9.13;6.15;;;;;;;;;;5030227;28;20053;-52
2023/01/09 02:38:10;;;;;;;10.32;6.53;;;;;;;;;;5031197;28;20442;-49
2023/01/09 02:40:42;;;;;;;9.60;5.95;;;;;;;;;;5031849;28;20049;-52
2023/01/09 02:43:11;;;;;;;8.73;5.78;;;;;;;;;;5031725;28;20410;-49
2023/01/09 02:45:38;;;;;;;9.23;6.35;;;;;;;;;;5031479;28;20497;-49
2023/01/09 02:48:08;;;;;;;11.88;6.72;;;;;;;;;;5031622;28;20433;-50
2023/01/09 02:50:42;;;;;;;9.97;6.87;;;;;;;;;;5031831;28;20514;-54
2023/01/09 02:53:33;;;;;;;10.43;7.22;;;;;;;;;;5031540;28;20056;-49
2023/01/09 02:56:12;;;;;;;9.38;6.55;;;;;;;;;;5031166;28;20049;-49
2023/01/09 02:58:54;;;;;;;10.73;6.70;;;;;;;;;;5031731;28;20096;-52
2023/01/09 03:01:28;;;;;;;9.60;6.07;;;;;;;;;;5031775;28;20065;-48
2023/01/09 03:04:04;;;;;;;9.60;5.85;;;;;;;;;;5031500;28;20054;-52
2023/01/09 03:06:36;;;;;;;10.02;5.82;;;;;;;;;;5028979;28;20116;-49
2023/01/09 03:09:06;;;;;;;9.70;5.70;;;;;;;;;;5031175;28;20068;-49
2023/01/09 03:11:38;;;;;;;8.43;5.28;;;;;;;;;;5031242;28;20064;-51
2023/01/09 03:14:10;;;;;;;9.45;5.50;;;;;;;;;;5031560;28;20724;-49
2023/01/09 03:16:37;;;;;;;9.57;5.55;;;;;;;;;;5031272;28;20049;-49
2023/01/09 03:19:08;;;;;;;6.93;4.85;;;;;;;;;;5031396;28;20449;-48
2023/01/09 03:21:36;;;;;;;8.30;5.30;;;;;;;;;;5031253;28;20556;-49
2023/01/09 03:24:03;;;;;;;6.75;4.30;;;;;;;;;;5031516;28;20053;-49
2023/01/09 03:26:30;;;;;;;7.13;4.20;;;;;;;;;;5031334;28;20049;-51
2023/01/09 03:28:57;;;;;;;7.95;5.10;;;;;;;;;;5034421;28;20045;-50
2023/01/09 03:31:24;;;;;;;6.75;4.53;;;;;;;;;;5035377;28;20123;-50
2023/01/09 03:33:51;;;;;;;8.00;4.47;;;;;;;;;;5035081;28;20041;-49
2023/01/09 03:36:20;;;;;;;7.28;4.43;;;;;;;;;;5034889;28;20049;-49
2023/01/09 03:38:47;;;;;;;6.13;4.00;;;;;;;;;;5034784;28;20049;-53
2023/01/09 03:41:14;;;;;;;7.65;4.47;;;;;;;;;;5035086;28;20057;-50
2023/01/09 03:43:41;;;;;;;7.78;4.15;;;;;;;;;;5034897;28;20049;-49
2023/01/09 03:46:08;;;;;;;6.57;4.00;;;;;;;;;;5034982;28;20111;-52
2023/01/09 03:48:35;;;;;;;6.80;3.85;;;;;;;;;;5034781;28;20104;-53
2023/01/09 03:51:01;;;;;;;6.95;3.78;;;;;;;;;;5034958;28;20119;-51
2023/01/09 03:53:30;;;;;;;6.28;3.70;;;;;;;;;;5034940;28;20494;-49
2023/01/09 03:55:57;;;;;;;7.05;3.97;;;;;;;;;;5034831;28;20112;-49
2023/01/09 03:58:25;;;;;;;5.70;3.60;;;;;;;;;;5034517;28;20417;-53
2023/01/09 04:00:57;;;;;;;5.15;3.58;;;;;;;;;;5034990;28;20049;-49
2023/01/09 04:03:24;;;;;;;6.55;4.00;;;;;;;;;;5034091;28;20053;-51
2023/01/09 04:05:50;;;;;;;5.93;3.60;;;;;;;;;;5034614;28;20049;-49
2023/01/09 04:08:18;;;;;;;6.80;3.92;;;;;;;;;;5034544;28;20053;-51
2023/01/09 04:10:46;;;;;;;6.63;4.22;;;;;;;;;;5034721;28;20391;-49
2023/01/09 04:13:13;;;;;;;7.47;4.35;;;;;;;;;;5034043;28;20139;-48
2023/01/09 04:15:40;;;;;;;8.15;4.85;;;;;;;;;;5034258;28;20057;-49
2023/01/09 04:18:07;;;;;;;6.28;3.88;;;;;;;;;;5034517;28;20103;-49
2023/01/09 04:20:35;;;;;;;6.43;4.00;;;;;;;;;;5034520;28;20453;-50
2023/01/09 04:23:01;;;;;;;8.70;4.20;;;;;;;;;;5034242;28;20115;-53
2023/01/09 04:25:28;;;;;;;5.35;3.50;;;;;;;;;;5034124;28;20045;-49
2023/01/09 04:27:56;;;;;;;5.28;3.08;;;;;;;;;;5034223;28;20045;-51
2023/01/09 04:30:23;;;;;;;4.60;2.58;;;;;;;;;;5034173;28;20046;-50
2023/01/09 04:32:50;;;;;;;5.85;2.72;;;;;;;;;;5034197;28;20403;-53
2023/01/09 04:35:17;;;;;;;6.18;2.65;;;;;;;;;;5033675;28;20051;-48
2023/01/09 04:37:44;;;;;;;6.10;2.30;;;;;;;;;;5033824;28;20095;-52
2023/01/09 04:40:12;;;;;;;4.18;2.30;;;;;;;;;;5033268;28;20125;-53
2023/01/09 04:42:40;;;;;;;5.07;2.17;;;;;;;;;;5033794;28;20053;-49
2023/01/09 04:45:11;;;;;;;4.25;1.90;;;;;;;;;;5033696;28;20438;-53
2023/01/09 04:47:38;;;;;;;4.40;1.80;;;;;;;;;;5033730;28;20100;-49
2023/01/09 04:50:05;;;;;;;3.75;1.80;;;;;;;;;;5033974;28;20053;-53
2023/01/09 04:52:32;;;;;;;3.22;1.75;;;;;;;;;;5034107;28;20392;-50
2023/01/09 04:54:59;;;;;;;3.08;1.58;;;;;;;;;;5034056;28;20473;-54
2023/01/09 04:57:26;;;;;;;3.28;1.40;;;;;;;;;;5034013;28;20469;-49
2023/01/09 04:59:52;;;;;;;3.03;1.15;;;;;;;;;;5034212;28;20084;-53
2023/01/09 05:02:20;;;;;;;1.75;1.15;;;;;;;;;;5033458;28;20049;-52
2023/01/09 05:04:47;;;;;;;2.65;1.05;;;;;;;;;;5033541;28;20042;-52
2023/01/09 05:07:14;;;;;;;1.42;0.70;;;;;;;;;;5033685;28;20054;-51
2023/01/09 05:09:41;;;;;;;2.10;1.02;;;;;;;;;;5033690;28;20402;-51
2023/01/09 05:12:08;;;;;;;1.42;0.80;;;;;;;;;;5033619;28;20045;-48
2023/01/09 05:14:35;;;;;;;1.40;0.80;;;;;;;;;;5033515;28;20111;-48
2023/01/09 05:17:02;;;;;;;1.23;0.60;;;;;;;;;;5033365;28;20045;-52
2023/01/09 05:19:30;;;;;;;1.77;0.65;;;;;;;;;;5033449;28;20486;-50
2023/01/09 05:21:57;;;;;;;3.53;0.90;;;;;;;;;;5033355;28;20104;-51
2023/01/09 05:24:23;;;;;;;0.77;0.60;;;;;;;;;;5033460;28;20050;-51
2023/01/09 05:26:50;;;;;;;1.58;0.60;;;;;;;;;;5033055;28;20049;-51
2023/01/09 05:29:17;;;;;;;0.98;0.40;;;;;;;;;;5033288;28;20465;-49
2023/01/09 05:31:44;;;;;;;1.02;0.55;;;;;;;;;;5033240;28;20052;-49
2023/01/09 05:34:11;;;;;;;1.08;0.50;;;;;;;;;;5033363;28;20053;-51
2023/01/09 05:36:39;;;;;;;0.82;0.47;;;;;;;;;;5033152;28;20053;-50
2023/01/09 05:39:06;;;;;;;1.63;0.70;;;;;;;;;;5025279;28;20111;-48
2023/01/09 05:41:33;;;;;;;0.73;0.55;;;;;;;;;;5032822;28;20055;-56
2023/01/09 05:44:00;;;;;;;0.40;0.40;;;;;;;;;;5033162;28;20115;-51
2023/01/09 05:46:26;;;;;;;1.02;0.43;;;;;;;;;;5033228;28;20396;-50
2023/01/09 05:48:53;;;;;;;1.67;0.50;;;;;;;;;;5032149;28;20053;-49
2023/01/09 05:51:20;;;;;;;0.75;0.30;;;;;;;;;;5032030;28;20387;-50
2023/01/09 05:53:48;;;;;;;0.95;0.35;;;;;;;;;;5032514;28;20049;-52
2023/01/09 05:56:15;;;;;;;1.52;0.35;;;;;;;;;;5032962;28;20111;-52
2023/01/09 05:58:42;;;;;;;0.95;0.45;;;;;;;;;;5032525;28;20057;-48
2023/01/09 06:01:09;;;;;;;0.60;0.40;;;;;;;;;;5032681;28;20053;-48
2023/01/09 06:03:36;;;;;;;0.70;0.40;;;;;;;;;;5032606;28;20053;-49
2023/01/09 06:06:03;;;;;;;2.20;0.73;;;;;;;;;;5032867;28;20467;-50
2023/01/09 06:08:30;;;;;;;0.40;0.30;;;;;;;;;;5032437;28;20103;-52
2023/01/09 06:10:58;;;;;;;0.20;0.20;;;;;;;;;;5032754;28;20045;-49
2023/01/09 06:13:25;;;;;;;1.13;0.40;;;;;;;;;;5032397;28;20057;-49
2023/01/09 06:15:51;;;;;;;1.65;0.30;;;;;;;;;;5045256;22;20057;-53
2023/01/09 06:18:18;;;;;;;0.40;0.30;;;;;;;;;;5046504;28;20054;-51
2023/01/09 06:20:45;;;;;;;1.60;0.50;;;;;;;;;;5031962;28;20055;-49
2023/01/09 06:23:12;;;;;;;0.30;0.30;;;;;;;;;;5032146;28;20049;-53
2023/01/09 06:25:39;;;;;;;1.05;0.38;;;;;;;;;;5032037;28;20100;-51
2023/01/09 06:28:07;;;;;;;1.35;0.50;;;;;;;;;;5031894;28;20414;-56
2023/01/09 06:30:34;;;;;;;0.50;0.38;;;;;;;;;;5012360;28;20490;-53
2023/01/09 06:33:01;;;;;;;0.95;0.45;;;;;;;;;;5012059;28;20418;-54
2023/01/09 06:35:28;;;;;;;0.25;0.20;;;;;;;;;;5013117;28;20079;-53
2023/01/09 06:37:55;;;;;;;0.73;0.30;;;;;;;;;;5031740;28;20145;-54
2023/01/09 06:40:22;;;;;;;1.10;0.40;;;;;;;;;;5031647;28;20189;-51
2023/01/09 06:42:49;;;;;;;1.02;0.30;;;;;;;;;;5031722;28;20465;-51
2023/01/09 06:45:18;;;;;;;0.47;0.30;;;;;;;;;;5032039;28;20076;-53
2023/01/09 06:47:45;;;;;;;0.50;0.30;;;;;;;;;;5031935;28;20513;-55
2023/01/09 06:50:12;;;;;;;0.50;0.32;;;;;;;;;;5031125;28;20128;-51
2023/01/09 06:52:39;;;;;;;0.93;0.30;;;;;;;;;;5031595;28;20494;-54
2023/01/09 06:55:07;;;;;;;0.35;0.30;;;;;;;;;;5031933;28;20065;-54
2023/01/09 06:57:34;;;;;;;0.80;0.50;;;;;;;;;;5031706;28;20045;-53
2023/01/09 07:00:01;;;;;;;0.43;0.35;;;;;;;;;;5031578;28;20384;-50
2023/01/09 07:02:30;;;;;;;0.63;0.30;;;;;;;;;;5012747;28;20046;-51
2023/01/09 07:04:56;;;;;;;0.68;0.30;;;;;;;;;;5023598;28;20037;-50
2023/01/09 07:07:23;;;;;;;0.30;0.30;;;;;;;;;;5035491;28;20041;-54
2023/01/09 07:09:50;;;;;;;0.80;0.30;;;;;;;;;;5035791;28;20119;-54
2023/01/09 07:12:17;;;;;;;1.00;0.50;;;;;;;;;;5035233;28;20556;-54
2023/01/09 07:14:44;;;;;;;0.52;0.20;;;;;;;;;;5035765;28;20454;-52
2023/01/09 07:17:12;;;;;;;0.52;0.20;;;;;;;;;;5035278;28;20103;-53
2023/01/09 07:19:40;;;;;;;0.98;0.30;;;;;;;;;;5035221;28;20100;-50
2023/01/09 07:22:08;;;;;;;0.20;0.20;;;;;;;;;;5035174;28;20510;-54
2023/01/09 07:24:34;;;;;;;1.58;0.38;;;;;;;;;;5035628;28;20053;-53
2023/01/09 07:27:02;;;;;;;0.68;0.30;;;;;;;;;;5035295;28;20418;-56
2023/01/09 07:29:29;;;;;;;0.43;0.30;;;;;;;;;;5029271;28;20045;-53
2023/01/09 07:31:56;;;;;;;0.32;0.20;;;;;;;;;;5036703;28;20052;-51
2023/01/09 07:34:23;;;;;;;3.35;0.30;;;;;;;;;;5036547;28;20075;-48
2023/01/09 07:36:51;;;;;;;0.77;0.40;;;;;;;;;;5036437;28;20490;-50
2023/01/09 07:39:18;;;;;;;0.60;0.30;;;;;;;;;;5035760;28;20054;-49
2023/01/09 07:41:45;;;;;;;0.70;0.30;;;;;;;;;;5035114;28;20088;-50
2023/01/09 07:44:12;;;;;;;0.57;0.30;;;;;;;;;;5030670;28;20042;-49
2023/01/09 07:46:39;;;;;;;1.13;0.40;;;;;;;;;;5034982;28;20414;-49
2023/01/09 07:49:07;;;;;;;1.05;0.30;;;;;;;;;;5035304;28;20046;-48
2023/01/09 07:51:33;;;;;;;0.50;0.30;;;;;;;;;;5034809;28;20152;-49
2023/01/09 07:54:02;;;;;;;0.98;0.43;;;;;;;;;;5033443;28;20049;-49
2023/01/09 07:56:28;;;;;;;1.00;0.50;;;;;;;;;;5034912;28;20046;-49
2023/01/09 07:58:55;;;;;;;1.02;0.50;;;;;;;;;;5034956;28;20361;-48
2023/01/09 08:01:22;;;;;;;1.08;0.40;;;;;;;;;;5034845;28;20569;-49
2023/01/09 08:03:49;;;;;;;0.88;0.40;;;;;;;;;;5026570;28;20046;-51
2023/01/09 08:06:16;;;;;;;1.23;0.30;;;;;;;;;;5025972;28;20593;-50
2023/01/09 08:08:43;;;;;;;0.80;0.28;;;;;;;;;;5028234;28;20188;-49
2023/01/09 08:11:11;;;;;;;0.52;0.30;;;;;;;;;;5026839;28;20049;-49
2023/01/09 08:13:38;;;;;;;0.88;0.55;;;;;;;;;;5032015;28;20449;-49
2023/01/09 08:16:06;;;;;;;0.57;0.20;;;;;;;;;;5032300;28;20403;-49
2023/01/09 08:18:33;;;;;;;0.52;0.30;;;;;;;;;;5033085;28;20049;-49
2023/01/09 08:21:00;;;;;;;1.02;0.40;;;;;;;;;;5031925;28;20505;-49
2023/01/09 08:23:26;;;;;;;0.38;0.30;;;;;;;;;;5031677;28;20041;-49
2023/01/09 08:25:53;;;;;;;0.75;0.30;;;;;;;;;;5032239;28;20045;-49
2023/01/09 08:28:22;;;;;;;0.70;0.50;;;;;;;;;;5032211;28;20761;-50
2023/01/09 08:30:48;;;;;;;1.17;0.60;;;;;;;;;;5032436;28;20573;-51
2023/01/09 08:33:16;;;;;;;0.95;0.47;;;;;;;;;;5032148;28;20053;-50
2023/01/09 08:35:43;;;;;;;1.10;0.50;;;;;;;;;;5031976;28;20052;-49
2023/01/09 08:38:10;;;;;;;0.77;0.40;;;;;;;;;;5032000;28;20049;-49
2023/01/09 08:40:37;;;;;;;1.00;0.30;;;;;;;;;;5028820;28;20310;-49
2023/01/09 08:48:34;;;;;;;0.95;0.50;;;;;;;;;;5031741;28;20056;-49
2023/01/09 08:51:01;;;;;;;0.93;0.50;;;;;;;;;;5033095;28;20045;-49
2023/01/09 08:53:28;;;;;;;1.02;0.52;;;;;;;;;;5011897;28;20100;-52
2023/01/09 08:55:55;;;;;;;3.38;0.75;;;;;;;;;;5012268;28;20041;-50
2023/01/09 08:58:22;;;;;;;0.98;0.60;;;;;;;;;;5012144;28;20054;-50
2023/01/09 09:00:50;;;;;;;1.73;0.70;;;;;;;;;;5028088;28;20553;-50
2023/01/09 09:03:17;;;;;;;1.40;0.45;;;;;;;;;;5031273;28;20495;-53
2023/01/09 09:05:44;;;;;;;0.95;0.45;;;;;;;;;;5033351;28;20144;-54
2023/01/09 09:08:11;;;;;;;1.08;0.65;;;;;;;;;;5032441;28;20061;-55
2023/01/09 09:10:38;;;;;;;1.13;0.60;;;;;;;;;;5032277;28;20128;-52
2023/01/09 09:13:06;;;;;;;0.88;0.45;;;;;;;;;;5030567;28;20049;-52
2023/01/09 09:15:33;;;;;;;1.98;0.57;;;;;;;;;;5012785;28;20052;-52
2023/01/09 09:18:03;;;;;;;0.80;0.50;;;;;;;;;;5012396;28;20054;-54
2023/01/09 09:20:32;;;;;;;1.98;0.50;;;;;;;;;;5012509;28;20049;-54
2023/01/09 09:22:59;;;;;;;1.42;0.45;;;;;;;;;;5013009;28;20046;-56
2023/01/09 09:25:27;;;;;;;1.90;0.50;;;;;;;;;;5031162;28;20092;-53
2023/01/09 09:27:55;;;;;;;1.73;0.43;;;;;;;;;;5032541;28;20053;-56
2023/01/09 09:30:24;;;;;;;0.85;0.60;;;;;;;;;;5032333;28;20049;-56
2023/01/09 09:32:51;;;;;;;3.90;0.70;;;;;;;;;;5031707;28;20053;-51
2023/01/09 09:35:21;;;;;;;1.10;0.55;;;;;;;;;;5031565;28;20053;-54
2023/01/09 09:37:56;;;;;;;1.85;0.50;;;;;;;;;;5031586;28;20053;-53
2023/01/09 09:40:34;;;;;;;0.73;0.45;;;;;;;;;;5030707;28;20538;-52
2023/01/09 09:46:27;;;;;;;1.95;0.60;;;;;;;;;;5011446;28;20434;-50
2023/01/09 09:48:57;;;;;;;2.50;0.73;;;;;;;;;;5012077;28;20301;-51
2023/01/09 09:51:35;;;;;;;0.80;0.47;;;;;;;;;;5025332;28;20053;-64
2023/01/09 09:54:06;;;;;;;2.40;0.60;;;;;;;;;;5031129;28;20052;-68
2023/01/09 09:56:36;;;;;;;2.75;0.60;;;;;;;;;;5030587;28;20483;-59
2023/01/09 09:59:07;;;;;;;1.05;0.50;;;;;;;;;;5030908;28;20590;-57
2023/01/09 10:01:40;;;;;;;1.05;0.50;;;;;;;;;;5030580;28;20133;-57
2023/01/09 10:04:11;;;;;;;1.45;0.60;;;;;;;;;;5030781;28;20403;-51
2023/01/09 10:06:43;;;;;;;2.38;0.50;;;;;;;;;;5040936;28;20045;-55
2023/01/09 10:09:18;;;;;;;2.58;0.80;;;;;;;;;;5051211;28;20508;-57
2023/01/09 10:11:51;;;;;;;2.58;0.80;;;;;;;;;;5050429;28;20048;-52
2023/01/09 10:14:18;;;;;;;1.05;0.40;;;;;;;;;;5050323;28;20052;-54
2023/01/09 10:17:03;;;;;;;3.90;0.70;;;;;;;;;;5051653;28;20539;-49
2023/01/09 10:19:53;;;;;;;1.42;0.50;;;;;;;;;;5068458;22;20135;-51
2023/01/09 10:22:31;;;;;;;1.35;0.60;;;;;;;;;;5053170;28;20041;-53
2023/01/09 10:25:11;;;;;;;2.08;0.85;;;;;;;;;;5053033;28;20045;-50
2023/01/09 10:27:56;;;;;;;3.90;1.25;;;;;;;;;;5032463;28;20422;-48
2023/01/09 10:30:31;;;;;;;4.93;1.00;;;;;;;;;;5049603;28;20100;-52
2023/01/09 10:33:10;;;;;;;5.15;1.27;;;;;;;;;;5042932;28;20179;-54
2023/01/09 10:36:03;;;;;;;2.40;1.20;;;;;;;;;;5038373;28;20044;-52
2023/01/09 10:38:37;;;;;;;2.20;0.70;;;;;;;;;;5037125;28;20416;-53
2023/01/09 10:41:09;;;;;;;4.00;0.80;;;;;;;;;;5049026;28;20052;-49
2023/01/09 10:43:41;;;;;;;2.78;0.80;;;;;;;;;;5048852;28;20499;-54
2023/01/09 10:46:12;;;;;;;7.47;1.25;;;;;;;;;;5044957;28;20044;-52
2023/01/09 10:48:42;;;;;;;;;;;;;;;;;;5034417;28;20057;-51
2023/01/09 10:51:18;;;;;;;2.22;0.60;;;;;;;;;;5032908;28;19924;-52
2023/01/09 10:53:51;;;;;;;1.85;0.63;;;;;;;;;;5049568;28;20051;-53
2023/01/09 10:56:23;;;;;;;1.75;0.60;;;;;;;;;;5049826;28;20551;-54
2023/01/09 10:58:50;;;;;;;2.10;0.60;;;;;;;;;;5048849;28;20053;-51
2023/01/09 11:01:20;;;;;;;2.42;0.70;;;;;;;;;;5049805;28;20060;-49
2023/01/09 11:03:47;;;;;;;1.73;0.60;;;;;;;;;;5042805;28;20426;-50
2023/01/09 11:06:20;;;;;;;3.10;0.70;;;;;;;;;;5047717;28;20422;-52
2023/01/09 11:08:51;;;;;;;2.63;0.73;;;;;;;;;;5044433;28;20044;-50
2023/01/09 11:11:32;;;;;;;4.20;0.93;;;;;;;;;;5040430;28;20115;-52
2023/01/09 11:14:12;;;;;;;1.60;0.50;;;;;;;;;;5040181;28;20124;-51
2023/01/09 11:16:51;;;;;;;0.80;0.40;;;;;;;;;;5040481;28;20053;-49
2023/01/09 11:19:18;;;;;;;1.35;0.50;;;;;;;;;;5035006;28;20049;-51
2023/01/09 11:21:45;;;;;;;5.00;0.60;;;;;;;;;;5029518;28;20045;-54
2023/01/09 11:24:30;;;;;;;3.97;0.70;;;;;;;;;;5046135;28;20045;-52
2023/01/09 11:27:30;;;;;;;9.30;1.02;;;;;;;;;;5041666;28;20461;-52
2023/01/09 11:30:18;;;;;;;4.00;1.15;;;;;;;;;;5037490;28;20041;-50
2023/01/09 11:32:48;;;;;;;2.13;0.73;;;;;;;;;;5058324;28;20048;-51
2023/01/09 11:35:21;;;;;;;5.20;0.90;;;;;;;;;;5049655;28;20045;-52
2023/01/09 11:37:56;;;;;;;3.35;0.77;;;;;;;;;;5049723;28;20045;-49
2023/01/09 11:40:25;;;;;;;3.05;0.65;;;;;;;;;;5048336;28;20041;-49
2023/01/09 11:43:04;;;;;;;5.38;1.05;;;;;;;;;;5048181;28;20505;-50
2023/01/09 11:45:34;;;;;;;1.95;0.90;;;;;;;;;;5040368;28;20553;-50
2023/01/09 11:48:03;;;;;;;2.38;0.65;;;;;;;;;;5029243;28;20493;-54
2023/01/09 11:50:31;;;;;;;1.60;0.55;;;;;;;;;;5046110;28;20059;-50
2023/01/09 11:53:13;;;;;;;1.65;0.75;;;;;;;;;;5052786;28;20544;-51
2023/01/09 11:55:42;;;;;;;5.45;0.70;;;;;;;;;;5063222;28;20053;-51
2023/01/09 11:58:13;;;;;;;3.75;0.70;;;;;;;;;;5060757;28;20044;-48
2023/01/09 12:00:48;;;;;;;4.53;0.77;;;;;;;;;;5071626;28;20514;-53
2023/01/09 12:03:25;;;;;;;2.88;0.93;;;;;;;;;;5057620;28;20044;-54
2023/01/09 12:05:59;;;;;;;3.63;0.70;;;;;;;;;;5067410;28;20048;-52
2023/01/09 12:08:40;;;;;;;1.67;0.98;;;;;;;;;;5052668;28;20522;-53
2023/01/09 12:11:22;;;;;;;3.88;0.50;;;;;;;;;;5063802;28;20044;-51
2023/01/09 12:14:16;;;;;;;3.60;0.82;;;;;;;;;;5072583;28;20048;-54
2023/01/09 12:16:57;;;;;;;3.72;0.75;;;;;;;;;;5067143;28;20052;-51
2023/01/09 12:19:51;;;;;;;3.90;0.98;;;;;;;;;;5052494;28;20076;-52
2023/01/09 12:22:26;;;;;;;2.25;0.50;;;;;;;;;;5052254;22;20045;-61
2023/01/09 12:25:28;;;;;;;4.82;0.80;;;;;;;;;;5031999;28;20054;-58
2023/01/09 12:28:14;;;;;;;2.10;0.75;;;;;;;;;;5003666;28;20064;-60
2023/01/09 12:30:57;;;;;;;1.98;0.63;;;;;;;;;;5031396;28;20540;-60
2023/01/09 12:33:36;;;;;;;2.42;0.77;;;;;;;;;;5018457;28;20046;-62
2023/01/09 12:36:17;;;;;;;2.03;0.70;;;;;;;;;;5012203;28;20057;-58
2023/01/09 12:38:48;;;;;;;;;;;;;;;;;;4993112;28;20486;-60
2023/01/09 12:41:42;;;;;;;4.65;0.57;;;;;;;;;;5001175;28;20370;-59
2023/01/09 12:44:34;;;;;;;2.33;0.65;;;;;;;;;;5011802;28;20141;-60
2023/01/09 12:47:16;;;;;;;3.75;1.17;;;;;;;;;;5012345;28;20065;-60
2023/01/09 12:49:52;;;;;;;2.72;0.60;;;;;;;;;;5005659;28;20092;-61
2023/01/09 12:52:23;;;;;;;3.10;0.52;;;;;;;;;;5011495;28;20399;-58
2023/01/09 12:54:53;;;;;;;2.38;1.00;;;;;;;;;;5000954;28;20060;-61
2023/01/09 12:57:26;;;;;;;3.35;0.70;;;;;;;;;;5006877;28;20108;-60
2023/01/09 12:59:58;;;;;;;1.75;0.60;;;;;;;;;;5004988;28;20101;-61
2023/01/09 13:02:32;;;;;;;3.50;1.00;;;;;;;;;;5000406;28;20112;-60
2023/01/09 13:05:01;;;;;;;0.55;0.50;;;;;;;;;;5003948;28;20619;-60
2023/01/09 13:07:32;;;;;;;3.17;0.75;;;;;;;;;;5011847;28;20050;-60
2023/01/09 13:10:06;;;;;;;2.33;0.63;;;;;;;;;;4992285;28;20058;-60
2023/01/09 13:12:36;;;;;;;4.68;0.73;;;;;;;;;;4991981;28;20542;-60
2023/01/09 13:15:15;;;;;;;5.75;0.98;;;;;;;;;;4992276;28;20108;-60
2023/01/09 13:17:45;;;;;;;1.98;0.60;;;;;;;;;;4992030;28;20053;-60
2023/01/09 13:20:21;;;;;;;4.00;0.98;;;;;;;;;;4992112;28;20093;-57
2023/01/09 13:22:49;;;;;;;4.45;1.45;;;;;;;;;;4992119;28;20391;-59
2023/01/09 13:25:43;;;;;;;3.78;0.75;;;;;;;;;;4992249;28;20050;-60
2023/01/09 13:28:17;;;;;;;3.17;0.73;;;;;;;;;;5000332;28;20112;-61
2023/01/09 13:31:15;;;;;;;4.28;0.77;;;;;;;;;;4999964;28;20117;-60
2023/01/09 13:33:45;;;;;;;1.75;0.60;;;;;;;;;;5008361;28;20259;-61
2023/01/09 13:36:23;;;;;;;4.93;0.90;;;;;;;;;;5011228;28;20052;-61
2023/01/09 13:38:50;;;;;;;5.93;1.00;;;;;;;;;;5011474;28;20518;-60
2023/01/09 13:44:04;;;;;;;2.53;0.60;;;;;;;;;;5011182;28;20435;-60
2023/01/09 13:46:39;;;;;;;3.65;0.73;;;;;;;;;;5011525;28;20467;-60
2023/01/09 13:49:07;;;;;;;4.18;0.80;;;;;;;;;;5011059;28;20120;-59
2023/01/09 13:52:00;;;;;;;3.67;0.90;;;;;;;;;;5011275;28;20042;-60
2023/01/09 13:55:02;;;;;;;2.25;0.70;;;;;;;;;;5011387;28;20057;-61
2023/01/09 13:57:31;;;;;;;4.65;0.70;;;;;;;;;;5005756;28;20046;-60
2023/01/09 14:00:35;;;;;;;1.83;1.00;;;;;;;;;;4991225;28;20061;-60
2023/01/09 14:03:18;;;;;;;4.78;0.70;;;;;;;;;;4991475;28;20510;-61
2023/01/09 14:06:19;;;;;;;1.52;0.52;;;;;;;;;;4990994;28;20042;-59
2023/01/09 14:08:49;;;;;;;1.65;0.50;;;;;;;;;;4996454;28;20046;-60
2023/01/09 14:11:22;;;;;;;4.82;1.48;;;;;;;;;;5010207;28;20400;-61
2023/01/09 14:13:58;;;;;;;1.30;0.57;;;;;;;;;;5004289;28;20050;-61
2023/01/09 14:16:26;;;;;;;3.33;0.80;;;;;;;;;;4990937;28;20101;-70
2023/01/09 14:19:03;;;;;;;5.57;1.20;;;;;;;;;;4991469;28;20074;-71
2023/01/09 14:21:45;;;;;;;3.67;0.70;;;;;;;;;;4991318;28;20057;-67
2023/01/09 14:24:23;;;;;;;3.33;1.00;;;;;;;;;;4992542;28;20117;-67
2023/01/09 14:26:53;;;;;;;3.13;1.05;;;;;;;;;;5007557;28;20229;-67
2023/01/09 14:29:46;;;;;;;3.38;0.82;;;;;;;;;;5010302;28;20062;-67
2023/01/09 14:32:52;;;;;;;3.10;0.65;;;;;;;;;;4995560;28;20053;-65
2023/01/09 14:35:41;;;;;;;0.85;0.50;;;;;;;;;;5004424;28;20052;-65
2023/01/09 14:38:25;;;;;;;4.43;0.82;;;;;;;;;;5010269;28;20050;-70
2023/01/09 14:40:59;;;;;;;5.07;0.70;;;;;;;;;;5010185;28;20061;-61
2023/01/09 14:43:33;;;;;;;2.40;0.70;;;;;;;;;;5010330;28;20076;-61
2023/01/09 14:46:08;;;;;;;1.85;0.93;;;;;;;;;;5010325;28;20058;-61
2023/01/09 14:48:38;;;;;;;1.55;0.52;;;;;;;;;;5010540;28;20631;-61
2023/01/09 14:51:10;;;;;;;5.88;0.82;;;;;;;;;;5010020;28;20054;-71
2023/01/09 14:53:38;;;;;;;3.15;0.90;;;;;;;;;;5010491;28;20049;-52
2023/01/09 14:56:07;;;;;;;4.05;0.65;;;;;;;;;;5010143;28;20478;-67
2023/01/09 14:58:35;;;;;;;3.05;0.63;;;;;;;;;;5010622;28;20058;-66
2023/01/09 15:01:04;;;;;;;2.25;0.80;;;;;;;;;;5010047;28;20152;-59
2023/01/09 15:03:36;;;;;;;2.78;0.80;;;;;;;;;;5009987;28;20065;-61
2023/01/09 15:06:04;;;;;;;1.85;0.98;;;;;;;;;;5002829;28;20406;-61
2023/01/09 15:08:32;;;;;;;2.40;1.00;;;;;;;;;;5003425;28;20052;-60
2023/01/09 15:10:59;;;;;;;2.00;0.75;;;;;;;;;;5001374;28;20101;-61
2023/01/09 15:13:34;;;;;;;3.10;0.90;;;;;;;;;;5011793;28;20104;-61
2023/01/09 15:16:04;;;;;;;2.60;0.70;;;;;;;;;;5002780;28;20050;-57
2023/01/09 15:18:36;;;;;;;2.17;0.80;;;;;;;;;;5002517;28;20053;-57
2023/01/09 15:21:04;;;;;;;3.17;0.70;;;;;;;;;;5000389;28;20464;-53